sensor_id;sensor_type;location;lat;lon;timestamp;P1;durP1;ratioP1;P2;durP2;ratioP2
22425;SDS011;11380;50.822;15.790;2022-11-09T00:02:13;53.30;;;48.57;;
22425;SDS011;11380;50.822;15.790;2022-11-09T00:07:19;50.23;;;46.10;;
22425;SDS011;11380;50.822;15.790;2022-11-09T00:12:24;65.97;;;52.43;;
22425;SDS011;11380;50.822;15.790;2022-11-09T00:17:29;53.87;;;48.93;;
22425;SDS011;11380;50.822;15.790;2022-11-09T00:22:34;56.07;;;50.27;;
22425;SDS011;11380;50.822;15.790;2022-11-09T00:27:40;53.40;;;48.60;;
22425;SDS011;11380;50.822;15.790;2022-11-09T00:32:46;57.30;;;51.73;;
22425;SDS011;11380;50.822;15.790;2022-11-09T00:37:51;65.73;;;55.00;;
22425;SDS011;11380;50.822;15.790;2022-11-09T00:42:58;60.10;;;53.93;;
22425;SDS011;11380;50.822;15.790;2022-11-09T00:48:03;57.83;;;52.03;;
22425;SDS011;11380;50.822;15.790;2022-11-09T00:53:08;53.80;;;49.00;;
22425;SDS011;11380;50.822;15.790;2022-11-09T00:58:13;50.47;;;46.47;;
22425;SDS011;11380;50.822;15.790;2022-11-09T01:03:18;52.27;;;47.60;;
22425;SDS011;11380;50.822;15.790;2022-11-09T01:08:24;55.83;;;50.70;;
22425;SDS011;11380;50.822;15.790;2022-11-09T01:13:29;49.13;;;45.03;;
22425;SDS011;11380;50.822;15.790;2022-11-09T01:18:34;50.10;;;45.93;;
22425;SDS011;11380;50.822;15.790;2022-11-09T01:28:45;51.63;;;47.17;;
22425;SDS011;11380;50.822;15.790;2022-11-09T01:33:51;53.03;;;48.50;;
22425;SDS011;11380;50.822;15.790;2022-11-09T01:38:56;48.80;;;45.00;;
22425;SDS011;11380;50.822;15.790;2022-11-09T01:44:06;48.23;;;44.53;;
22425;SDS011;11380;50.822;15.790;2022-11-09T01:49:15;49.33;;;45.20;;
22425;SDS011;11380;50.822;15.790;2022-11-09T01:54:30;49.70;;;45.63;;
22425;SDS011;11380;50.822;15.790;2022-11-09T01:59:35;50.97;;;46.50;;
22425;SDS011;11380;50.822;15.790;2022-11-09T02:04:50;50.50;;;46.40;;
22425;SDS011;11380;50.822;15.790;2022-11-09T02:15:16;51.18;;;46.88;;
22425;SDS011;11380;50.822;15.790;2022-11-09T02:20:22;51.73;;;47.13;;
22425;SDS011;11380;50.822;15.790;2022-11-09T02:25:29;53.25;;;48.65;;
22425;SDS011;11380;50.822;15.790;2022-11-09T02:30:34;53.60;;;48.80;;
22425;SDS011;11380;50.822;15.790;2022-11-09T02:35:41;53.50;;;48.60;;
22425;SDS011;11380;50.822;15.790;2022-11-09T02:40:47;52.55;;;48.08;;
22425;SDS011;11380;50.822;15.790;2022-11-09T02:45:55;52.77;;;48.07;;
22425;SDS011;11380;50.822;15.790;2022-11-09T02:51:00;52.93;;;48.43;;
22425;SDS011;11380;50.822;15.790;2022-11-09T02:56:06;53.03;;;48.27;;
22425;SDS011;11380;50.822;15.790;2022-11-09T03:01:11;53.50;;;48.90;;
22425;SDS011;11380;50.822;15.790;2022-11-09T03:06:17;52.00;;;47.60;;
22425;SDS011;11380;50.822;15.790;2022-11-09T03:11:22;53.13;;;48.53;;
22425;SDS011;11380;50.822;15.790;2022-11-09T03:16:28;52.50;;;48.10;;
22425;SDS011;11380;50.822;15.790;2022-11-09T03:21:34;52.53;;;48.03;;
22425;SDS011;11380;50.822;15.790;2022-11-09T03:26:39;53.00;;;48.53;;
22425;SDS011;11380;50.822;15.790;2022-11-09T03:31:44;52.60;;;48.10;;
22425;SDS011;11380;50.822;15.790;2022-11-09T03:36:49;52.43;;;47.83;;
22425;SDS011;11380;50.822;15.790;2022-11-09T03:41:54;52.90;;;48.50;;
22425;SDS011;11380;50.822;15.790;2022-11-09T03:47:00;51.80;;;47.40;;
22425;SDS011;11380;50.822;15.790;2022-11-09T03:52:05;53.07;;;48.33;;
22425;SDS011;11380;50.822;15.790;2022-11-09T03:57:11;52.07;;;47.80;;
22425;SDS011;11380;50.822;15.790;2022-11-09T04:02:15;51.73;;;47.43;;
22425;SDS011;11380;50.822;15.790;2022-11-09T04:07:21;51.35;;;47.05;;
22425;SDS011;11380;50.822;15.790;2022-11-09T04:12:27;51.63;;;47.43;;
22425;SDS011;11380;50.822;15.790;2022-11-09T04:17:32;50.90;;;46.80;;
22425;SDS011;11380;50.822;15.790;2022-11-09T04:22:37;51.17;;;46.87;;
22425;SDS011;11380;50.822;15.790;2022-11-09T04:27:42;51.17;;;46.80;;
22425;SDS011;11380;50.822;15.790;2022-11-09T04:32:47;50.53;;;46.33;;
22425;SDS011;11380;50.822;15.790;2022-11-09T04:37:56;51.67;;;47.37;;
22425;SDS011;11380;50.822;15.790;2022-11-09T04:43:04;52.43;;;47.70;;
22425;SDS011;11380;50.822;15.790;2022-11-09T04:48:11;51.23;;;47.07;;
22425;SDS011;11380;50.822;15.790;2022-11-09T04:53:16;51.03;;;46.93;;
22425;SDS011;11380;50.822;15.790;2022-11-09T04:58:23;51.83;;;47.45;;
22425;SDS011;11380;50.822;15.790;2022-11-09T05:03:29;55.90;;;47.30;;
22425;SDS011;11380;50.822;15.790;2022-11-09T05:08:34;52.30;;;47.70;;
22425;SDS011;11380;50.822;15.790;2022-11-09T05:13:39;50.57;;;46.27;;
22425;SDS011;11380;50.822;15.790;2022-11-09T05:18:45;50.45;;;46.45;;
22425;SDS011;11380;50.822;15.790;2022-11-09T05:23:51;51.03;;;46.80;;
22425;SDS011;11380;50.822;15.790;2022-11-09T05:29:05;49.90;;;45.90;;
22425;SDS011;11380;50.822;15.790;2022-11-09T05:34:12;50.90;;;46.63;;
22425;SDS011;11380;50.822;15.790;2022-11-09T05:39:17;50.57;;;46.37;;
22425;SDS011;11380;50.822;15.790;2022-11-09T05:44:23;49.87;;;45.70;;
22425;SDS011;11380;50.822;15.790;2022-11-09T05:49:29;49.13;;;45.23;;
22425;SDS011;11380;50.822;15.790;2022-11-09T05:54:35;49.87;;;45.77;;
22425;SDS011;11380;50.822;15.790;2022-11-09T05:59:40;49.60;;;45.50;;
22425;SDS011;11380;50.822;15.790;2022-11-09T06:04:45;50.87;;;46.33;;
22425;SDS011;11380;50.822;15.790;2022-11-09T06:09:51;50.93;;;46.23;;
22425;SDS011;11380;50.822;15.790;2022-11-09T06:14:56;50.20;;;45.90;;
22425;SDS011;11380;50.822;15.790;2022-11-09T06:20:02;50.57;;;46.17;;
22425;SDS011;11380;50.822;15.790;2022-11-09T06:25:07;49.73;;;45.63;;
22425;SDS011;11380;50.822;15.790;2022-11-09T06:30:13;50.47;;;46.33;;
22425;SDS011;11380;50.822;15.790;2022-11-09T06:35:18;50.60;;;46.30;;
22425;SDS011;11380;50.822;15.790;2022-11-09T06:40:24;51.05;;;46.83;;
22425;SDS011;11380;50.822;15.790;2022-11-09T06:45:30;52.10;;;47.60;;
22425;SDS011;11380;50.822;15.790;2022-11-09T06:50:35;53.33;;;48.47;;
22425;SDS011;11380;50.822;15.790;2022-11-09T06:55:41;53.27;;;48.70;;
22425;SDS011;11380;50.822;15.790;2022-11-09T07:00:47;55.30;;;50.33;;
22425;SDS011;11380;50.822;15.790;2022-11-09T07:05:53;55.83;;;50.73;;
22425;SDS011;11380;50.822;15.790;2022-11-09T07:11:05;56.00;;;50.87;;
22425;SDS011;11380;50.822;15.790;2022-11-09T07:16:10;54.13;;;49.27;;
22425;SDS011;11380;50.822;15.790;2022-11-09T07:26:22;53.30;;;48.48;;
22425;SDS011;11380;50.822;15.790;2022-11-09T07:31:27;53.47;;;48.63;;
22425;SDS011;11380;50.822;15.790;2022-11-09T07:36:34;53.57;;;48.90;;
22425;SDS011;11380;50.822;15.790;2022-11-09T07:41:39;55.20;;;50.00;;
22425;SDS011;11380;50.822;15.790;2022-11-09T07:46:48;54.23;;;49.53;;
22425;SDS011;11380;50.822;15.790;2022-11-09T07:51:56;53.33;;;48.73;;
22425;SDS011;11380;50.822;15.790;2022-11-09T07:57:00;54.23;;;49.47;;
22425;SDS011;11380;50.822;15.790;2022-11-09T08:02:07;54.73;;;49.87;;
22425;SDS011;11380;50.822;15.790;2022-11-09T08:07:14;54.63;;;49.80;;
22425;SDS011;11380;50.822;15.790;2022-11-09T08:12:19;52.23;;;47.87;;
22425;SDS011;11380;50.822;15.790;2022-11-09T08:17:24;54.03;;;49.30;;
22425;SDS011;11380;50.822;15.790;2022-11-09T08:22:29;54.23;;;49.33;;
22425;SDS011;11380;50.822;15.790;2022-11-09T08:27:34;53.80;;;49.23;;
22425;SDS011;11380;50.822;15.790;2022-11-09T08:32:42;53.65;;;48.95;;
22425;SDS011;11380;50.822;15.790;2022-11-09T08:37:49;53.95;;;49.25;;
22425;SDS011;11380;50.822;15.790;2022-11-09T08:42:58;54.30;;;49.50;;
22425;SDS011;11380;50.822;15.790;2022-11-09T08:48:09;55.47;;;50.57;;
22425;SDS011;11380;50.822;15.790;2022-11-09T08:53:16;55.30;;;50.30;;
22425;SDS011;11380;50.822;15.790;2022-11-09T08:58:22;54.47;;;49.77;;
22425;SDS011;11380;50.822;15.790;2022-11-09T09:03:28;53.30;;;48.80;;
22425;SDS011;11380;50.822;15.790;2022-11-09T09:08:33;54.93;;;50.00;;
22425;SDS011;11380;50.822;15.790;2022-11-09T09:13:39;53.93;;;49.23;;
22425;SDS011;11380;50.822;15.790;2022-11-09T09:18:46;52.57;;;48.07;;
22425;SDS011;11380;50.822;15.790;2022-11-09T09:23:53;53.00;;;48.23;;
22425;SDS011;11380;50.822;15.790;2022-11-09T09:28:58;52.90;;;48.43;;
22425;SDS011;11380;50.822;15.790;2022-11-09T09:34:03;55.17;;;50.13;;
22425;SDS011;11380;50.822;15.790;2022-11-09T09:39:08;53.67;;;49.00;;
22425;SDS011;11380;50.822;15.790;2022-11-09T09:44:22;52.47;;;48.07;;
22425;SDS011;11380;50.822;15.790;2022-11-09T09:49:38;53.20;;;48.50;;
22425;SDS011;11380;50.822;15.790;2022-11-09T09:54:53;55.47;;;50.37;;
22425;SDS011;11380;50.822;15.790;2022-11-09T09:59:57;53.20;;;48.70;;
22425;SDS011;11380;50.822;15.790;2022-11-09T10:05:08;54.60;;;49.60;;
22425;SDS011;11380;50.822;15.790;2022-11-09T10:15:55;57.13;;;51.63;;
22425;SDS011;11380;50.822;15.790;2022-11-09T10:26:25;57.73;;;52.30;;
22425;SDS011;11380;50.822;15.790;2022-11-09T10:31:42;59.53;;;53.70;;
22425;SDS011;11380;50.822;15.790;2022-11-09T10:36:52;55.97;;;50.70;;
22425;SDS011;11380;50.822;15.790;2022-11-09T10:41:58;56.67;;;51.37;;
22425;SDS011;11380;50.822;15.790;2022-11-09T10:47:05;58.80;;;53.17;;
22425;SDS011;11380;50.822;15.790;2022-11-09T10:52:28;59.03;;;53.53;;
22425;SDS011;11380;50.822;15.790;2022-11-09T10:57:37;60.07;;;54.03;;
22425;SDS011;11380;50.822;15.790;2022-11-09T11:02:46;59.20;;;53.27;;
22425;SDS011;11380;50.822;15.790;2022-11-09T11:07:53;61.07;;;55.07;;
22425;SDS011;11380;50.822;15.790;2022-11-09T11:18:12;59.47;;;53.67;;
22425;SDS011;11380;50.822;15.790;2022-11-09T11:23:20;62.37;;;55.03;;
22425;SDS011;11380;50.822;15.790;2022-11-09T11:28:35;59.88;;;53.85;;
22425;SDS011;11380;50.822;15.790;2022-11-09T11:33:41;58.70;;;53.10;;
22425;SDS011;11380;50.822;15.790;2022-11-09T11:44:32;59.53;;;53.73;;
22425;SDS011;11380;50.822;15.790;2022-11-09T11:50:00;59.70;;;53.63;;
22425;SDS011;11380;50.822;15.790;2022-11-09T12:00:30;58.90;;;53.23;;
22425;SDS011;11380;50.822;15.790;2022-11-09T12:22:08;58.10;;;52.70;;
22425;SDS011;11380;50.822;15.790;2022-11-09T12:38:04;57.40;;;51.90;;
22425;SDS011;11380;50.822;15.790;2022-11-09T12:43:17;58.33;;;52.60;;
22425;SDS011;11380;50.822;15.790;2022-11-09T12:53:33;58.20;;;52.37;;
22425;SDS011;11380;50.822;15.790;2022-11-09T12:58:40;59.57;;;53.67;;
22425;SDS011;11380;50.822;15.790;2022-11-09T13:03:52;60.93;;;54.87;;
22425;SDS011;11380;50.822;15.790;2022-11-09T13:19:54;60.30;;;54.60;;
22425;SDS011;11380;50.822;15.790;2022-11-09T13:24:57;61.57;;;55.33;;
22425;SDS011;11380;50.822;15.790;2022-11-09T13:40:49;62.90;;;56.70;;
22425;SDS011;11380;50.822;15.790;2022-11-09T13:45:59;59.30;;;53.40;;
22425;SDS011;11380;50.822;15.790;2022-11-09T13:51:19;58.02;;;52.38;;
22425;SDS011;11380;50.822;15.790;2022-11-09T14:01:50;58.07;;;52.50;;
22425;SDS011;11380;50.822;15.790;2022-11-09T14:12:09;58.13;;;52.20;;
22425;SDS011;11380;50.822;15.790;2022-11-09T14:17:35;61.97;;;55.70;;
22425;SDS011;11380;50.822;15.790;2022-11-09T14:22:46;60.20;;;54.00;;
22425;SDS011;11380;50.822;15.790;2022-11-09T14:27:52;60.33;;;54.37;;
22425;SDS011;11380;50.822;15.790;2022-11-09T14:33:01;58.67;;;52.93;;
22425;SDS011;11380;50.822;15.790;2022-11-09T14:43:28;61.13;;;55.20;;
22425;SDS011;11380;50.822;15.790;2022-11-09T14:48:36;62.47;;;56.30;;
22425;SDS011;11380;50.822;15.790;2022-11-09T14:53:43;61.67;;;55.20;;
22425;SDS011;11380;50.822;15.790;2022-11-09T14:58:49;63.47;;;56.93;;
22425;SDS011;11380;50.822;15.790;2022-11-09T15:04:13;62.07;;;55.77;;
22425;SDS011;11380;50.822;15.790;2022-11-09T15:14:27;66.00;;;58.00;;
22425;SDS011;11380;50.822;15.790;2022-11-09T15:19:46;63.43;;;57.13;;
22425;SDS011;11380;50.822;15.790;2022-11-09T15:24:52;65.97;;;59.13;;
22425;SDS011;11380;50.822;15.790;2022-11-09T15:29:58;59.77;;;53.58;;
22425;SDS011;11380;50.822;15.790;2022-11-09T15:35:12;59.40;;;53.80;;
22425;SDS011;11380;50.822;15.790;2022-11-09T15:40:21;62.65;;;56.23;;
22425;SDS011;11380;50.822;15.790;2022-11-09T15:45:28;59.80;;;54.10;;
22425;SDS011;11380;50.822;15.790;2022-11-09T15:50:39;60.90;;;54.57;;
22425;SDS011;11380;50.822;15.790;2022-11-09T15:55:45;60.10;;;54.00;;
22425;SDS011;11380;50.822;15.790;2022-11-09T16:00:51;61.63;;;55.23;;
22425;SDS011;11380;50.822;15.790;2022-11-09T16:11:03;68.42;;;60.55;;
22425;SDS011;11380;50.822;15.790;2022-11-09T16:16:10;61.00;;;54.85;;
22425;SDS011;11380;50.822;15.790;2022-11-09T16:21:17;77.50;;;60.67;;
22425;SDS011;11380;50.822;15.790;2022-11-09T16:26:23;67.50;;;59.10;;
22425;SDS011;11380;50.822;15.790;2022-11-09T16:31:28;70.40;;;58.87;;
22425;SDS011;11380;50.822;15.790;2022-11-09T16:36:36;73.60;;;62.83;;
22425;SDS011;11380;50.822;15.790;2022-11-09T16:41:47;61.53;;;55.13;;
22425;SDS011;11380;50.822;15.790;2022-11-09T16:46:55;62.07;;;55.80;;
22425;SDS011;11380;50.822;15.790;2022-11-09T16:52:00;60.50;;;54.27;;
22425;SDS011;11380;50.822;15.790;2022-11-09T16:57:06;59.33;;;53.63;;
22425;SDS011;11380;50.822;15.790;2022-11-09T17:02:11;68.70;;;59.70;;
22425;SDS011;11380;50.822;15.790;2022-11-09T17:07:18;67.27;;;60.08;;
22425;SDS011;11380;50.822;15.790;2022-11-09T17:12:23;58.63;;;52.85;;
22425;SDS011;11380;50.822;15.790;2022-11-09T17:17:30;61.20;;;55.07;;
22425;SDS011;11380;50.822;15.790;2022-11-09T17:22:36;59.63;;;53.47;;
22425;SDS011;11380;50.822;15.790;2022-11-09T17:27:44;59.40;;;53.53;;
22425;SDS011;11380;50.822;15.790;2022-11-09T17:32:51;61.13;;;54.93;;
22425;SDS011;11380;50.822;15.790;2022-11-09T17:37:57;67.77;;;59.27;;
22425;SDS011;11380;50.822;15.790;2022-11-09T17:43:03;89.10;;;67.80;;
22425;SDS011;11380;50.822;15.790;2022-11-09T17:53:14;63.20;;;56.57;;
22425;SDS011;11380;50.822;15.790;2022-11-09T17:58:22;155.97;;;92.60;;
22425;SDS011;11380;50.822;15.790;2022-11-09T18:03:37;83.00;;;66.50;;
22425;SDS011;11380;50.822;15.790;2022-11-09T18:08:38;72.13;;;60.97;;
22425;SDS011;11380;50.822;15.790;2022-11-09T18:18:50;80.37;;;62.60;;
22425;SDS011;11380;50.822;15.790;2022-11-09T18:23:57;80.92;;;65.15;;
22425;SDS011;11380;50.822;15.790;2022-11-09T18:29:03;58.37;;;52.50;;
22425;SDS011;11380;50.822;15.790;2022-11-09T18:34:09;110.50;;;78.80;;
22425;SDS011;11380;50.822;15.790;2022-11-09T18:39:14;60.97;;;54.77;;
22425;SDS011;11380;50.822;15.790;2022-11-09T18:44:20;66.77;;;59.77;;
22425;SDS011;11380;50.822;15.790;2022-11-09T18:49:25;74.67;;;63.00;;
22425;SDS011;11380;50.822;15.790;2022-11-09T18:54:30;84.03;;;66.20;;
22425;SDS011;11380;50.822;15.790;2022-11-09T18:59:38;75.07;;;63.20;;
22425;SDS011;11380;50.822;15.790;2022-11-09T19:04:45;65.17;;;58.13;;
22425;SDS011;11380;50.822;15.790;2022-11-09T19:09:50;65.77;;;58.87;;
22425;SDS011;11380;50.822;15.790;2022-11-09T19:14:57;77.40;;;63.50;;
22425;SDS011;11380;50.822;15.790;2022-11-09T19:20:06;76.87;;;66.63;;
22425;SDS011;11380;50.822;15.790;2022-11-09T19:25:12;87.90;;;66.43;;
22425;SDS011;11380;50.822;15.790;2022-11-09T19:30:18;88.83;;;62.87;;
22425;SDS011;11380;50.822;15.790;2022-11-09T19:35:25;111.47;;;81.00;;
22425;SDS011;11380;50.822;15.790;2022-11-09T19:40:33;184.47;;;106.30;;
22425;SDS011;11380;50.822;15.790;2022-11-09T19:45:40;141.97;;;89.50;;
22425;SDS011;11380;50.822;15.790;2022-11-09T19:50:47;116.40;;;84.07;;
22425;SDS011;11380;50.822;15.790;2022-11-09T19:55:57;130.97;;;87.35;;
22425;SDS011;11380;50.822;15.790;2022-11-09T20:01:06;177.70;;;101.33;;
22425;SDS011;11380;50.822;15.790;2022-11-09T20:06:12;176.90;;;101.70;;
22425;SDS011;11380;50.822;15.790;2022-11-09T20:11:21;83.87;;;68.40;;
22425;SDS011;11380;50.822;15.790;2022-11-09T20:16:45;58.63;;;52.80;;
22425;SDS011;11380;50.822;15.790;2022-11-09T20:21:51;120.13;;;79.73;;
22425;SDS011;11380;50.822;15.790;2022-11-09T20:26:56;118.27;;;84.10;;
22425;SDS011;11380;50.822;15.790;2022-11-09T20:32:01;87.93;;;71.43;;
22425;SDS011;11380;50.822;15.790;2022-11-09T20:37:07;84.60;;;68.80;;
22425;SDS011;11380;50.822;15.790;2022-11-09T20:42:12;68.00;;;60.67;;
22425;SDS011;11380;50.822;15.790;2022-11-09T20:47:17;67.97;;;59.70;;
22425;SDS011;11380;50.822;15.790;2022-11-09T20:52:30;92.03;;;71.40;;
22425;SDS011;11380;50.822;15.790;2022-11-09T20:57:33;94.73;;;77.80;;
22425;SDS011;11380;50.822;15.790;2022-11-09T21:02:38;92.90;;;73.13;;
22425;SDS011;11380;50.822;15.790;2022-11-09T21:07:45;70.13;;;59.70;;
22425;SDS011;11380;50.822;15.790;2022-11-09T21:12:53;60.90;;;54.57;;
22425;SDS011;11380;50.822;15.790;2022-11-09T21:17:59;59.38;;;53.40;;
22425;SDS011;11380;50.822;15.790;2022-11-09T21:23:05;56.80;;;51.43;;
22425;SDS011;11380;50.822;15.790;2022-11-09T21:28:17;57.47;;;52.10;;
22425;SDS011;11380;50.822;15.790;2022-11-09T21:33:39;57.23;;;51.83;;
22425;SDS011;11380;50.822;15.790;2022-11-09T21:38:45;57.87;;;52.57;;
22425;SDS011;11380;50.822;15.790;2022-11-09T21:43:51;59.07;;;53.27;;
22425;SDS011;11380;50.822;15.790;2022-11-09T21:54:04;56.90;;;51.30;;
22425;SDS011;11380;50.822;15.790;2022-11-09T21:59:10;58.50;;;52.90;;
22425;SDS011;11380;50.822;15.790;2022-11-09T22:04:16;60.10;;;54.20;;
22425;SDS011;11380;50.822;15.790;2022-11-09T22:09:21;61.73;;;55.43;;
22425;SDS011;11380;50.822;15.790;2022-11-09T22:14:26;60.28;;;54.03;;
22425;SDS011;11380;50.822;15.790;2022-11-09T22:19:50;59.73;;;53.70;;
22425;SDS011;11380;50.822;15.790;2022-11-09T22:25:13;61.00;;;55.03;;
22425;SDS011;11380;50.822;15.790;2022-11-09T22:30:19;60.07;;;54.23;;
22425;SDS011;11380;50.822;15.790;2022-11-09T22:35:25;59.77;;;54.13;;
22425;SDS011;11380;50.822;15.790;2022-11-09T22:40:31;60.37;;;54.53;;
22425;SDS011;11380;50.822;15.790;2022-11-09T22:45:36;59.27;;;53.37;;
22425;SDS011;11380;50.822;15.790;2022-11-09T22:50:47;62.90;;;56.67;;
22425;SDS011;11380;50.822;15.790;2022-11-09T22:55:54;62.17;;;55.60;;
22425;SDS011;11380;50.822;15.790;2022-11-09T23:06:12;60.70;;;54.45;;
22425;SDS011;11380;50.822;15.790;2022-11-09T23:11:20;59.30;;;53.47;;
22425;SDS011;11380;50.822;15.790;2022-11-09T23:16:28;57.83;;;52.23;;
22425;SDS011;11380;50.822;15.790;2022-11-09T23:21:33;57.27;;;51.90;;
22425;SDS011;11380;50.822;15.790;2022-11-09T23:26:40;59.40;;;53.60;;
22425;SDS011;11380;50.822;15.790;2022-11-09T23:31:45;58.95;;;53.35;;
22425;SDS011;11380;50.822;15.790;2022-11-09T23:36:51;58.23;;;52.67;;
22425;SDS011;11380;50.822;15.790;2022-11-09T23:41:56;55.87;;;50.83;;
22425;SDS011;11380;50.822;15.790;2022-11-09T23:47:01;56.37;;;51.17;;
22425;SDS011;11380;50.822;15.790;2022-11-09T23:52:07;89.50;;;65.87;;
22425;SDS011;11380;50.822;15.790;2022-11-09T23:57:14;90.40;;;61.33;;
